Time;durP1;ratioP1;P1;durP2;ratioP2;P2;SDS_P1;SDS_P2;PMS_P1;PMS_P2;Temp;Humidity;BMP_temperature;BMP_pressure;BME280_temperature;BME280_humidity;BME280_pressure;Samples;Min_cycle;Max_cycle;Signal;HPM_P1;HPM_P2
2023/12/28 00:03:11;;;;;;;9.30;4.50;;;;;;;;;;104191;1285;544956;-74
2023/12/28 00:06:48;;;;;;;11.10;4.70;;;;;;;;;;103573;1292;545823;-74
2023/12/28 00:10:27;;;;;;;9.60;4.60;;;;;;;;;;103601;1293;545674;-74
2023/12/28 00:14:03;;;;;;;10.10;4.80;;;;;;;;;;103759;1289;545049;-73
2023/12/28 00:17:40;;;;;;;11.00;5.00;;;;;;;;;;103625;1291;545833;-74
2023/12/28 00:21:18;;;;;;;10.60;5.00;;;;;;;;;;104242;1289;545214;-74
2023/12/28 00:24:56;;;;;;;9.30;4.90;;;;;;;;;;103813;1289;545705;-74
2023/12/28 00:28:33;;;;;;;9.70;4.90;;;;;;;;;;103824;1289;545407;-74
2023/12/28 00:32:11;;;;;;;9.90;5.00;;;;;;;;;;103546;1295;544786;-73
2023/12/28 00:35:48;;;;;;;9.50;4.70;;;;;;;;;;103516;1292;545267;-75
2023/12/28 00:39:26;;;;;;;10.00;4.90;;;;;;;;;;103528;1292;544833;-74
2023/12/28 00:43:03;;;;;;;9.70;5.10;;;;;;;;;;103870;1289;545060;-74
2023/12/28 00:46:41;;;;;;;9.60;4.80;;;;;;;;;;103848;1288;545250;-75
2023/12/28 00:50:18;;;;;;;9.80;4.50;;;;;;;;;;103521;1295;545129;-73
2023/12/28 00:53:55;;;;;;;8.70;4.70;;;;;;;;;;103835;1289;545084;-75
2023/12/28 00:57:33;;;;;;;10.90;4.90;;;;;;;;;;103868;1289;545671;-76
2023/12/28 01:01:10;;;;;;;10.60;4.90;;;;;;;;;;103733;1293;545738;-74
2023/12/28 01:04:48;;;;;;;9.30;4.40;;;;;;;;;;103858;1290;545047;-74
2023/12/28 01:08:25;;;;;;;11.60;4.80;;;;;;;;;;103559;1292;545526;-73
2023/12/28 01:12:04;;;;;;;8.60;4.00;;;;;;;;;;103892;1289;545082;-74
2023/12/28 01:15:41;;;;;;;9.70;4.70;;;;;;;;;;103840;1292;544952;-72
2023/12/28 01:19:18;;;;;;;10.50;4.70;;;;;;;;;;103605;1291;544906;-74
2023/12/28 01:22:55;;;;;;;9.40;4.80;;;;;;;;;;103616;1293;544896;-74
2023/12/28 01:26:34;;;;;;;8.20;4.00;;;;;;;;;;103577;1292;546238;-73
2023/12/28 01:30:10;;;;;;;8.50;4.00;;;;;;;;;;103512;1292;544973;-75
2023/12/28 01:33:47;;;;;;;8.60;4.00;;;;;;;;;;103778;1292;545007;-74
2023/12/28 01:37:25;;;;;;;8.40;4.00;;;;;;;;;;103985;1288;544994;-74
2023/12/28 01:41:03;;;;;;;8.60;3.90;;;;;;;;;;103590;1297;544863;-73
2023/12/28 01:44:40;;;;;;;10.10;3.60;;;;;;;;;;103868;1289;545427;-73
2023/12/28 01:48:18;;;;;;;7.90;3.80;;;;;;;;;;103786;1289;544822;-73
2023/12/28 01:51:55;;;;;;;9.10;4.00;;;;;;;;;;104316;1288;545236;-73
2023/12/28 01:55:33;;;;;;;8.50;4.00;;;;;;;;;;103985;1289;545218;-75
2023/12/28 01:59:10;;;;;;;8.00;3.60;;;;;;;;;;103476;1295;545084;-74
2023/12/28 02:02:48;;;;;;;8.50;3.40;;;;;;;;;;103537;1297;545234;-74
2023/12/28 02:06:25;;;;;;;8.90;4.10;;;;;;;;;;104270;1285;545157;-76
2023/12/28 02:10:03;;;;;;;7.40;3.60;;;;;;;;;;103733;1289;545043;-74
2023/12/28 02:13:40;;;;;;;8.60;4.30;;;;;;;;;;103594;1303;545018;-74
2023/12/28 02:17:19;;;;;;;11.00;5.00;;;;;;;;;;103783;1291;544936;-73
2023/12/28 02:21:02;;;;;;;7.90;3.50;;;;;;;;;;103742;1289;544783;-71
2023/12/28 02:24:55;;;;;;;9.30;4.30;;;;;;;;;;103624;1298;544820;-73
2023/12/28 02:28:15;;;;;;;7.80;3.50;;;;;;;;;;103842;1289;545955;-73
2023/12/28 02:31:55;;;;;;;7.90;3.80;;;;;;;;;;103625;1292;545908;-73
2023/12/28 02:35:41;;;;;;;8.30;4.20;;;;;;;;;;103832;1292;545699;-73
2023/12/28 02:39:22;;;;;;;6.90;3.00;;;;;;;;;;103768;1291;545148;-72
2023/12/28 02:42:59;;;;;;;6.60;3.00;;;;;;;;;;103953;1289;545214;-71
2023/12/28 02:46:36;;;;;;;7.00;3.10;;;;;;;;;;103597;1292;545568;-73
2023/12/28 02:50:14;;;;;;;8.50;3.70;;;;;;;;;;103980;1289;545225;-75
2023/12/28 02:53:51;;;;;;;7.80;3.10;;;;;;;;;;103570;1292;546133;-74
2023/12/28 02:57:29;;;;;;;7.10;2.80;;;;;;;;;;103559;1291;545023;-74
2023/12/28 03:01:02;;;;;;;7.00;2.90;;;;;;;;;;103806;1291;546066;-74
2023/12/28 03:04:49;;;;;;;7.20;2.80;;;;;;;;;;103733;1288;544861;-74
2023/12/28 03:08:21;;;;;;;6.60;2.20;;;;;;;;;;103576;1298;545390;-74
2023/12/28 03:11:59;;;;;;;8.90;3.20;;;;;;;;;;104025;1288;544796;-74
2023/12/28 03:15:36;;;;;;;8.30;3.10;;;;;;;;;;104015;1295;545579;-72
2023/12/28 03:19:16;;;;;;;8.80;3.00;;;;;;;;;;103678;1289;545527;-74
2023/12/28 03:22:51;;;;;;;6.30;2.70;;;;;;;;;;103890;1288;545348;-72
2023/12/28 03:26:29;;;;;;;5.60;2.20;;;;;;;;;;104180;1285;544978;-73
2023/12/28 03:30:06;;;;;;;6.00;2.40;;;;;;;;;;104256;1286;545705;-72
2023/12/28 03:33:43;;;;;;;7.30;2.50;;;;;;;;;;103717;1292;545086;-72
2023/12/28 03:37:21;;;;;;;6.70;2.70;;;;;;;;;;103520;1306;547048;-75
2023/12/28 03:40:59;;;;;;;5.50;2.20;;;;;;;;;;104716;1283;545068;-72
2023/12/28 03:44:36;;;;;;;5.90;2.30;;;;;;;;;;103587;1293;545961;-74
2023/12/28 03:48:13;;;;;;;5.70;2.20;;;;;;;;;;103629;1292;545469;-72
2023/12/28 03:51:51;;;;;;;5.40;2.20;;;;;;;;;;103629;1292;545093;-73
2023/12/28 03:55:28;;;;;;;6.20;2.40;;;;;;;;;;103619;1292;544828;-73
2023/12/28 03:59:09;;;;;;;5.60;2.60;;;;;;;;;;103853;1289;544845;-71
2023/12/28 04:02:39;;;;;;;6.10;2.60;;;;;;;;;;103781;1289;544889;-72
2023/12/28 04:06:21;;;;;;;5.60;2.20;;;;;;;;;;103980;1289;545990;-72
2023/12/28 04:09:58;;;;;;;6.60;2.50;;;;;;;;;;103842;1289;545111;-73
2023/12/28 04:13:36;;;;;;;6.90;2.90;;;;;;;;;;103697;1289;546512;-72
2023/12/28 04:17:13;;;;;;;6.30;2.90;;;;;;;;;;103566;1295;546017;-72
2023/12/28 04:20:47;;;;;;;6.80;2.90;;;;;;;;;;104291;1285;546234;-76
2023/12/28 04:24:28;;;;;;;7.30;2.60;;;;;;;;;;103518;1291;545448;-76
2023/12/28 04:28:06;;;;;;;6.10;2.50;;;;;;;;;;103606;1300;544985;-76
2023/12/28 04:31:43;;;;;;;6.50;2.80;;;;;;;;;;103814;1289;544873;-74
2023/12/28 04:35:20;;;;;;;7.60;2.80;;;;;;;;;;104051;1286;545467;-72
2023/12/28 04:38:57;;;;;;;6.40;2.70;;;;;;;;;;103491;1298;544818;-73
2023/12/28 04:42:36;;;;;;;6.60;2.60;;;;;;;;;;104113;1288;545072;-73
2023/12/28 04:46:12;;;;;;;6.60;2.80;;;;;;;;;;103663;1292;545037;-73
2023/12/28 04:49:51;;;;;;;8.10;3.40;;;;;;;;;;103903;1289;545507;-73
2023/12/28 04:53:28;;;;;;;7.50;3.20;;;;;;;;;;103669;1292;545623;-74
2023/12/28 04:57:08;;;;;;;7.80;3.60;;;;;;;;;;103601;1295;544965;-72
2023/12/28 05:00:42;;;;;;;7.90;3.50;;;;;;;;;;103814;1291;545111;-74
2023/12/28 05:04:20;;;;;;;8.50;3.50;;;;;;;;;;103900;1289;545167;-72
2023/12/28 05:07:57;;;;;;;8.00;3.90;;;;;;;;;;103704;1292;545005;-75
2023/12/28 05:11:35;;;;;;;8.70;4.00;;;;;;;;;;103798;1297;545201;-74
2023/12/28 05:15:12;;;;;;;8.90;4.00;;;;;;;;;;104223;1286;545380;-77
2023/12/28 05:18:49;;;;;;;8.60;3.30;;;;;;;;;;103599;1304;545115;-74
2023/12/28 05:22:27;;;;;;;8.30;3.80;;;;;;;;;;103867;1289;545057;-74
2023/12/28 05:26:05;;;;;;;8.80;4.20;;;;;;;;;;103688;1292;545135;-74
2023/12/28 05:29:38;;;;;;;8.10;4.00;;;;;;;;;;103791;1291;545277;-74
2023/12/28 05:33:20;;;;;;;9.00;4.50;;;;;;;;;;103603;1294;545098;-74
2023/12/28 05:36:57;;;;;;;9.60;4.10;;;;;;;;;;103631;1292;545570;-72
2023/12/28 05:40:35;;;;;;;9.70;4.30;;;;;;;;;;103781;1292;545464;-74
2023/12/28 05:44:12;;;;;;;10.70;5.00;;;;;;;;;;103650;1292;545047;-74
2023/12/28 05:47:50;;;;;;;10.40;4.10;;;;;;;;;;104191;1289;544861;-75
2023/12/28 05:51:27;;;;;;;8.30;4.20;;;;;;;;;;104668;1282;546509;-75
2023/12/28 05:55:05;;;;;;;8.30;4.10;;;;;;;;;;103592;1298;545654;-74
2023/12/28 05:58:41;;;;;;;8.60;4.00;;;;;;;;;;103774;1295;544871;-76
2023/12/28 06:02:20;;;;;;;7.70;3.50;;;;;;;;;;104174;1286;544915;-73
2023/12/28 06:05:57;;;;;;;9.30;4.00;;;;;;;;;;103596;1291;546528;-75
2023/12/28 06:09:54;;;;;;;8.10;3.50;;;;;;;;;;103487;1295;547988;-73
2023/12/28 06:13:08;;;;;;;8.60;4.40;;;;;;;;;;104118;1288;544845;-74
2023/12/28 06:16:49;;;;;;;8.10;4.00;;;;;;;;;;103792;1289;545351;-74
2023/12/28 06:20:23;;;;;;;9.60;4.50;;;;;;;;;;104041;1292;545950;-75
2023/12/28 06:24:05;;;;;;;10.90;4.70;;;;;;;;;;103993;1289;546508;-75
2023/12/28 06:27:42;;;;;;;7.40;3.80;;;;;;;;;;103581;1292;545138;-74
2023/12/28 06:31:36;;;;;;;8.80;3.50;;;;;;;;;;103613;1290;548023;-75
2023/12/28 06:34:56;;;;;;;7.20;3.70;;;;;;;;;;103499;1291;544957;-72
2023/12/28 06:38:34;;;;;;;7.80;3.70;;;;;;;;;;103696;1297;544958;-74
2023/12/28 06:42:17;;;;;;;9.40;4.70;;;;;;;;;;103684;1289;545847;-74
2023/12/28 06:45:49;;;;;;;9.50;4.90;;;;;;;;;;103597;1293;545725;-72
2023/12/28 06:49:26;;;;;;;10.10;4.80;;;;;;;;;;103749;1295;545754;-72
2023/12/28 06:53:04;;;;;;;9.10;4.00;;;;;;;;;;103833;1290;544879;-75
2023/12/28 06:56:42;;;;;;;9.90;4.20;;;;;;;;;;104312;1283;544945;-72
2023/12/28 07:00:19;;;;;;;8.80;3.90;;;;;;;;;;103606;1298;545851;-71
2023/12/28 07:03:58;;;;;;;10.10;4.00;;;;;;;;;;103766;1289;545144;-74
2023/12/28 07:07:33;;;;;;;9.20;4.10;;;;;;;;;;103503;1295;545993;-72
2023/12/28 07:11:11;;;;;;;9.30;3.90;;;;;;;;;;103616;1292;545088;-78
2023/12/28 07:14:48;;;;;;;8.10;3.70;;;;;;;;;;103662;1291;545883;-74
2023/12/28 07:18:26;;;;;;;7.80;3.80;;;;;;;;;;103503;1295;545142;-75
2023/12/28 07:22:03;;;;;;;8.90;4.00;;;;;;;;;;103640;1292;545475;-73
2023/12/28 07:25:41;;;;;;;10.20;4.50;;;;;;;;;;103712;1292;545180;-73
2023/12/28 07:29:18;;;;;;;8.70;4.00;;;;;;;;;;103798;1288;544925;-74
2023/12/28 07:32:56;;;;;;;9.20;4.00;;;;;;;;;;103726;1290;544896;-73
2023/12/28 07:36:42;;;;;;;8.40;3.70;;;;;;;;;;103485;1292;544876;-73
2023/12/28 07:40:11;;;;;;;9.30;3.80;;;;;;;;;;103628;1295;545504;-73
2023/12/28 07:43:49;;;;;;;8.10;3.50;;;;;;;;;;103718;1289;545080;-73
2023/12/28 07:47:27;;;;;;;8.50;3.70;;;;;;;;;;103483;1292;545682;-73
2023/12/28 07:51:04;;;;;;;8.70;4.10;;;;;;;;;;104194;1289;544845;-72
2023/12/28 07:54:41;;;;;;;8.20;4.00;;;;;;;;;;103979;1295;544941;-72
2023/12/28 07:58:15;;;;;;;8.50;4.10;;;;;;;;;;103835;1298;544949;-73
2023/12/28 08:01:56;;;;;;;8.40;4.30;;;;;;;;;;103604;1295;545277;-72
2023/12/28 08:05:33;;;;;;;8.50;4.60;;;;;;;;;;103817;1290;544887;-72
2023/12/28 08:09:10;;;;;;;8.80;4.20;;;;;;;;;;103818;1289;545228;-74
2023/12/28 08:12:44;;;;;;;9.70;4.40;;;;;;;;;;105038;1282;545415;-73
2023/12/28 08:16:26;;;;;;;9.20;4.50;;;;;;;;;;104041;1288;545698;-73
2023/12/28 08:20:04;;;;;;;8.20;3.90;;;;;;;;;;103718;1291;545697;-72
2023/12/28 08:23:41;;;;;;;8.40;4.10;;;;;;;;;;103739;1292;544995;-72
2023/12/28 08:27:18;;;;;;;11.60;5.50;;;;;;;;;;103850;1289;545579;-72
2023/12/28 08:30:56;;;;;;;10.20;5.70;;;;;;;;;;103630;1291;544945;-72
2023/12/28 08:34:33;;;;;;;10.40;5.20;;;;;;;;;;103685;1292;545027;-72
2023/12/28 08:38:11;;;;;;;10.00;5.20;;;;;;;;;;103759;1291;545012;-73
2023/12/28 08:41:48;;;;;;;10.20;5.10;;;;;;;;;;103660;1305;545617;-73
2023/12/28 08:45:25;;;;;;;11.10;5.20;;;;;;;;;;103728;1292;545747;-74
2023/12/28 08:49:03;;;;;;;11.50;5.50;;;;;;;;;;103707;1292;545250;-72
2023/12/28 08:52:40;;;;;;;11.10;5.80;;;;;;;;;;104106;1298;544965;-75
2023/12/28 08:56:22;;;;;;;12.10;6.10;;;;;;;;;;103757;1291;545052;-72
2023/12/28 08:59:55;;;;;;;9.30;4.80;;;;;;;;;;103655;1292;544795;-73
2023/12/28 09:03:29;;;;;;;10.00;4.50;;;;;;;;;;103861;1294;544838;-74
2023/12/28 09:07:10;;;;;;;10.80;4.60;;;;;;;;;;103647;1291;544685;-72
2023/12/28 09:10:48;;;;;;;12.50;6.50;;;;;;;;;;103803;1289;544882;-74
2023/12/28 09:14:25;;;;;;;11.10;6.00;;;;;;;;;;103650;1291;544793;-74
2023/12/28 09:18:02;;;;;;;10.10;4.70;;;;;;;;;;103829;1289;545032;-72
2023/12/28 09:21:40;;;;;;;8.70;4.50;;;;;;;;;;103757;1292;545009;-73
2023/12/28 09:25:13;;;;;;;8.50;4.70;;;;;;;;;;103836;1289;544949;-74
2023/12/28 09:28:55;;;;;;;9.40;4.90;;;;;;;;;;103701;1291;545435;-74
2023/12/28 09:32:32;;;;;;;11.70;6.40;;;;;;;;;;103801;1292;544750;-75
2023/12/28 09:36:12;;;;;;;11.80;5.80;;;;;;;;;;103659;1292;544798;-74
2023/12/28 09:39:47;;;;;;;14.60;9.10;;;;;;;;;;103777;1292;546039;-73
2023/12/28 09:43:25;;;;;;;16.80;9.20;;;;;;;;;;103830;1288;545197;-72
2023/12/28 09:47:04;;;;;;;28.30;16.00;;;;;;;;;;103684;1292;545636;-72
2023/12/28 09:50:39;;;;;;;32.80;17.30;;;;;;;;;;103665;1291;545040;-72
2023/12/28 09:54:18;;;;;;;23.10;11.10;;;;;;;;;;103764;1292;545497;-72
2023/12/28 09:57:55;;;;;;;19.10;9.30;;;;;;;;;;103674;1293;545007;-73
2023/12/28 10:01:34;;;;;;;27.80;14.20;;;;;;;;;;103721;1291;546318;-71
2023/12/28 10:05:12;;;;;;;27.90;14.40;;;;;;;;;;103757;1292;545066;-73
2023/12/28 10:08:47;;;;;;;22.00;12.00;;;;;;;;;;104211;1286;545997;-72
2023/12/28 10:12:28;;;;;;;28.00;17.30;;;;;;;;;;103897;1291;545039;-72
2023/12/28 10:16:07;;;;;;;14.70;7.80;;;;;;;;;;103731;1292;544731;-72
2023/12/28 10:19:47;;;;;;;10.50;5.40;;;;;;;;;;103770;1291;544852;-72
2023/12/28 10:23:17;;;;;;;17.60;8.20;;;;;;;;;;103856;1290;544800;-72
2023/12/28 10:26:57;;;;;;;18.40;10.90;;;;;;;;;;103701;1292;545301;-74
2023/12/28 10:30:35;;;;;;;14.60;7.60;;;;;;;;;;103748;1291;544927;-71
2023/12/28 10:34:12;;;;;;;13.80;7.70;;;;;;;;;;103787;1292;545092;-71
2023/12/28 10:37:52;;;;;;;13.90;7.10;;;;;;;;;;103711;1291;546197;-71
2023/12/28 10:41:29;;;;;;;11.50;6.40;;;;;;;;;;103674;1295;545713;-71
2023/12/28 10:45:05;;;;;;;9.90;5.50;;;;;;;;;;103762;1290;544990;-72
2023/12/28 10:48:43;;;;;;;9.60;4.90;;;;;;;;;;103668;1291;545439;-72
2023/12/28 10:52:21;;;;;;;10.30;5.00;;;;;;;;;;103733;1292;546275;-71
2023/12/28 10:55:54;;;;;;;10.50;5.20;;;;;;;;;;103854;1292;545046;-71
2023/12/28 10:59:43;;;;;;;14.60;7.70;;;;;;;;;;103703;1292;545573;-73
2023/12/28 11:03:13;;;;;;;11.40;6.10;;;;;;;;;;103893;1292;545501;-74
2023/12/28 11:06:46;;;;;;;11.90;6.20;;;;;;;;;;103993;1290;544986;-72
2023/12/28 11:10:29;;;;;;;11.60;6.10;;;;;;;;;;103821;1289;546429;-73
2023/12/28 11:14:05;;;;;;;12.40;6.30;;;;;;;;;;103834;1289;545029;-72
2023/12/28 11:17:42;;;;;;;11.10;6.10;;;;;;;;;;103663;1295;544822;-73
2023/12/28 11:21:25;;;;;;;11.50;6.40;;;;;;;;;;103632;1294;544839;-73
2023/12/28 11:24:57;;;;;;;18.40;8.20;;;;;;;;;;103902;1290;545127;-74
2023/12/28 11:28:34;;;;;;;18.10;7.80;;;;;;;;;;103827;1290;544803;-72
2023/12/28 11:32:11;;;;;;;15.70;7.90;;;;;;;;;;103831;1295;544784;-73
2023/12/28 11:35:52;;;;;;;12.30;6.00;;;;;;;;;;103894;1290;545373;-72
2023/12/28 11:39:34;;;;;;;11.70;6.20;;;;;;;;;;103693;1292;545488;-73
2023/12/28 11:43:19;;;;;;;11.60;6.30;;;;;;;;;;104149;1285;544792;-73
2023/12/28 11:46:47;;;;;;;13.30;7.30;;;;;;;;;;103549;1290;545083;-72
2023/12/28 11:50:19;;;;;;;12.60;6.10;;;;;;;;;;103927;1289;545654;-72
2023/12/28 11:53:56;;;;;;;11.10;5.60;;;;;;;;;;104236;1292;545024;-72
2023/12/28 11:57:33;;;;;;;12.20;6.50;;;;;;;;;;104101;1292;544836;-72
2023/12/28 12:01:11;;;;;;;16.10;9.10;;;;;;;;;;103880;1292;545477;-72
2023/12/28 12:04:49;;;;;;;14.70;8.20;;;;;;;;;;103958;1292;545103;-72
2023/12/28 12:08:26;;;;;;;12.60;6.60;;;;;;;;;;103870;1291;544915;-72
2023/12/28 12:12:04;;;;;;;11.60;6.50;;;;;;;;;;104010;1302;544860;-71
2023/12/28 12:15:41;;;;;;;13.20;8.00;;;;;;;;;;104027;1288;544701;-71
2023/12/28 12:19:19;;;;;;;11.30;6.30;;;;;;;;;;103748;1289;545047;-74
2023/12/28 12:23:00;;;;;;;9.10;4.60;;;;;;;;;;103792;1294;544929;-73
2023/12/28 12:26:36;;;;;;;9.60;4.80;;;;;;;;;;103781;1292;545706;-74
2023/12/28 12:30:11;;;;;;;8.90;4.60;;;;;;;;;;104127;1289;544839;-72
2023/12/28 12:33:49;;;;;;;12.80;6.90;;;;;;;;;;104053;1289;545116;-71
2023/12/28 12:37:26;;;;;;;10.10;5.10;;;;;;;;;;103818;1289;544816;-74
2023/12/28 12:41:03;;;;;;;12.90;5.70;;;;;;;;;;103767;1292;544986;-71
2023/12/28 12:44:41;;;;;;;12.10;6.10;;;;;;;;;;104166;1286;544844;-73
2023/12/28 12:48:24;;;;;;;15.80;8.00;;;;;;;;;;103669;1291;545483;-72
2023/12/28 12:51:57;;;;;;;14.80;7.60;;;;;;;;;;103714;1292;544915;-73
2023/12/28 12:55:33;;;;;;;18.40;10.70;;;;;;;;;;103664;1292;545628;-73
2023/12/28 12:59:15;;;;;;;15.30;8.10;;;;;;;;;;103848;1292;544896;-73
2023/12/28 13:02:53;;;;;;;20.40;11.50;;;;;;;;;;103682;1295;546265;-73
2023/12/28 13:06:23;;;;;;;20.50;11.00;;;;;;;;;;103783;1289;545149;-71
2023/12/28 13:10:03;;;;;;;18.40;9.80;;;;;;;;;;103770;1292;545696;-72
2023/12/28 13:13:40;;;;;;;14.80;8.00;;;;;;;;;;103883;1292;545528;-72
2023/12/28 13:17:14;;;;;;;14.70;7.80;;;;;;;;;;104200;1286;545683;-72
2023/12/28 13:20:56;;;;;;;14.40;7.00;;;;;;;;;;103719;1289;545295;-71
2023/12/28 13:24:33;;;;;;;11.30;6.60;;;;;;;;;;103834;1290;545350;-72
2023/12/28 13:28:12;;;;;;;11.20;5.60;;;;;;;;;;103910;1288;544820;-72
2023/12/28 13:31:50;;;;;;;10.60;5.80;;;;;;;;;;104024;1289;544960;-72
2023/12/28 13:35:25;;;;;;;12.10;6.00;;;;;;;;;;103795;1289;545620;-72
2023/12/28 13:39:02;;;;;;;12.10;6.20;;;;;;;;;;103692;1291;546747;-72
2023/12/28 13:42:41;;;;;;;10.00;5.80;;;;;;;;;;103846;1292;545011;-71
2023/12/28 13:46:18;;;;;;;10.10;5.40;;;;;;;;;;103633;1291;545544;-71
2023/12/28 13:49:51;;;;;;;11.40;5.30;;;;;;;;;;103901;1289;545285;-73
2023/12/28 13:53:39;;;;;;;12.20;6.70;;;;;;;;;;103710;1293;545331;-73
2023/12/28 13:57:10;;;;;;;16.20;8.40;;;;;;;;;;103917;1291;545914;-71
2023/12/28 14:00:47;;;;;;;17.50;9.50;;;;;;;;;;103686;1292;545000;-73
2023/12/28 14:04:25;;;;;;;19.80;9.80;;;;;;;;;;103759;1290;545093;-72
2023/12/28 14:08:03;;;;;;;15.00;8.30;;;;;;;;;;103718;1292;545000;-72
2023/12/28 14:11:40;;;;;;;22.10;12.50;;;;;;;;;;103892;1292;544962;-72
2023/12/28 14:15:16;;;;;;;15.80;8.60;;;;;;;;;;103803;1289;544985;-75
2023/12/28 14:18:56;;;;;;;14.60;7.50;;;;;;;;;;103752;1292;544799;-74
2023/12/28 14:22:30;;;;;;;18.10;8.40;;;;;;;;;;103778;1295;545343;-74
2023/12/28 14:26:14;;;;;;;15.20;7.90;;;;;;;;;;103752;1291;544782;-71
2023/12/28 14:29:50;;;;;;;15.20;9.30;;;;;;;;;;103884;1289;544908;-71
2023/12/28 14:33:25;;;;;;;14.30;7.40;;;;;;;;;;103587;1292;544711;-71
2023/12/28 14:37:03;;;;;;;18.80;9.80;;;;;;;;;;103792;1289;544991;-71
2023/12/28 14:40:40;;;;;;;19.60;9.80;;;;;;;;;;103870;1289;545273;-73
2023/12/28 14:44:18;;;;;;;16.10;9.70;;;;;;;;;;103885;1290;545062;-73
2023/12/28 14:47:56;;;;;;;94.60;54.70;;;;;;;;;;103666;1305;544822;-71
2023/12/28 14:51:33;;;;;;;24.90;14.30;;;;;;;;;;103989;1288;545324;-71
2023/12/28 14:55:11;;;;;;;21.60;13.40;;;;;;;;;;103734;1292;544847;-71
2023/12/28 14:58:48;;;;;;;19.80;10.70;;;;;;;;;;104105;1289;544667;-72
2023/12/28 15:02:25;;;;;;;27.20;20.50;;;;;;;;;;104182;1292;545083;-71
2023/12/28 15:06:03;;;;;;;22.60;16.50;;;;;;;;;;103982;1292;545636;-72
2023/12/28 15:09:40;;;;;;;21.00;14.30;;;;;;;;;;103966;1289;546638;-71
2023/12/28 15:13:18;;;;;;;22.30;11.50;;;;;;;;;;103855;1292;544842;-72
2023/12/28 15:16:55;;;;;;;41.10;26.10;;;;;;;;;;103756;1294;546058;-73
2023/12/28 15:20:32;;;;;;;25.60;13.20;;;;;;;;;;103857;1289;544711;-74
2023/12/28 15:24:10;;;;;;;29.70;13.50;;;;;;;;;;103866;1289;544935;-71
2023/12/28 15:27:48;;;;;;;21.50;10.60;;;;;;;;;;103868;1292;544775;-73
2023/12/28 15:31:25;;;;;;;17.60;9.50;;;;;;;;;;103784;1292;545149;-73
2023/12/28 15:35:12;;;;;;;21.40;11.50;;;;;;;;;;103544;1292;546026;-71
2023/12/28 15:38:40;;;;;;;25.80;13.90;;;;;;;;;;103780;1289;545907;-74
2023/12/28 15:42:18;;;;;;;24.00;12.40;;;;;;;;;;103830;1296;545105;-73
2023/12/28 15:45:55;;;;;;;34.50;18.10;;;;;;;;;;103663;1291;544713;-74
2023/12/28 15:49:33;;;;;;;20.50;10.80;;;;;;;;;;103870;1289;545646;-72
2023/12/28 15:53:10;;;;;;;23.40;13.10;;;;;;;;;;103650;1293;545077;-73
2023/12/28 15:56:47;;;;;;;24.20;13.20;;;;;;;;;;103883;1289;545396;-72
2023/12/28 16:00:26;;;;;;;20.90;10.60;;;;;;;;;;104185;1289;545481;-73
2023/12/28 16:04:03;;;;;;;16.40;8.50;;;;;;;;;;104077;1286;545085;-73
2023/12/28 16:07:37;;;;;;;15.00;7.20;;;;;;;;;;103740;1296;544999;-73
2023/12/28 16:11:18;;;;;;;21.60;12.30;;;;;;;;;;103788;1290;545587;-72
2023/12/28 16:15:01;;;;;;;15.30;8.20;;;;;;;;;;103669;1290;544764;-73
2023/12/28 16:18:33;;;;;;;12.20;7.40;;;;;;;;;;103896;1292;544846;-71
2023/12/28 16:22:10;;;;;;;12.40;7.20;;;;;;;;;;103794;1290;545053;-74
2023/12/28 16:25:48;;;;;;;16.60;8.90;;;;;;;;;;103810;1291;545116;-74
2023/12/28 16:29:25;;;;;;;21.20;11.20;;;;;;;;;;103981;1288;545058;-73
2023/12/28 16:33:03;;;;;;;18.70;10.10;;;;;;;;;;103964;1288;545456;-73
2023/12/28 16:36:40;;;;;;;17.60;10.00;;;;;;;;;;103773;1294;545706;-73
2023/12/28 16:40:18;;;;;;;20.60;11.00;;;;;;;;;;103838;1292;546131;-73
2023/12/28 16:43:56;;;;;;;21.20;10.70;;;;;;;;;;103689;1291;545681;-73
2023/12/28 16:47:32;;;;;;;23.40;12.00;;;;;;;;;;104217;1289;545443;-73
2023/12/28 16:51:10;;;;;;;25.40;12.60;;;;;;;;;;103816;1295;545008;-74
2023/12/28 16:54:47;;;;;;;17.20;9.70;;;;;;;;;;103711;1295;545013;-73
2023/12/28 16:58:24;;;;;;;14.80;7.90;;;;;;;;;;103917;1292;545152;-73
2023/12/28 17:02:02;;;;;;;18.60;10.10;;;;;;;;;;103812;1289;545772;-73
2023/12/28 17:05:39;;;;;;;14.30;7.80;;;;;;;;;;103751;1290;544748;-71
2023/12/28 17:09:17;;;;;;;17.60;9.20;;;;;;;;;;104205;1289;545282;-75
2023/12/28 17:12:55;;;;;;;30.30;14.60;;;;;;;;;;104092;1291;544917;-73
2023/12/28 17:16:30;;;;;;;24.20;12.10;;;;;;;;;;104008;1289;545243;-73
2023/12/28 17:20:10;;;;;;;17.10;9.50;;;;;;;;;;103669;1291;545028;-71
2023/12/28 17:23:51;;;;;;;13.70;7.70;;;;;;;;;;103640;1292;545010;-74
2023/12/28 17:27:31;;;;;;;14.40;8.10;;;;;;;;;;103802;1292;545001;-73
2023/12/28 17:31:05;;;;;;;19.50;10.10;;;;;;;;;;103789;1289;544906;-73
2023/12/28 17:34:40;;;;;;;23.60;11.60;;;;;;;;;;103658;1296;544835;-72
2023/12/28 17:38:18;;;;;;;21.20;10.80;;;;;;;;;;103802;1289;544781;-73
2023/12/28 17:41:55;;;;;;;36.90;19.10;;;;;;;;;;104753;1280;545200;-73
2023/12/28 17:45:39;;;;;;;56.60;28.70;;;;;;;;;;103731;1295;545144;-73
2023/12/28 17:49:12;;;;;;;58.90;27.40;;;;;;;;;;104708;1283;545772;-73
2023/12/28 17:52:48;;;;;;;37.60;19.50;;;;;;;;;;103742;1292;544846;-72
2023/12/28 17:56:25;;;;;;;24.30;12.90;;;;;;;;;;104688;1292;545592;-73
2023/12/28 18:00:03;;;;;;;25.30;13.30;;;;;;;;;;103732;1289;545013;-73
2023/12/28 18:03:40;;;;;;;26.20;13.90;;;;;;;;;;103753;1292;544842;-73
2023/12/28 18:07:14;;;;;;;22.30;12.30;;;;;;;;;;103885;1289;544902;-73
2023/12/28 18:10:55;;;;;;;24.10;11.60;;;;;;;;;;103630;1293;544950;-73
2023/12/28 18:14:33;;;;;;;26.70;11.70;;;;;;;;;;103602;1294;545078;-73
2023/12/28 18:18:10;;;;;;;27.60;12.60;;;;;;;;;;104857;1286;544913;-74
2023/12/28 18:21:50;;;;;;;27.00;11.80;;;;;;;;;;103633;1293;544804;-73
2023/12/28 18:25:26;;;;;;;22.60;10.80;;;;;;;;;;103758;1292;545043;-73
2023/12/28 18:29:02;;;;;;;23.30;9.80;;;;;;;;;;103953;1289;544984;-73
2023/12/28 18:32:40;;;;;;;20.90;10.00;;;;;;;;;;103876;1288;545055;-74
2023/12/28 18:36:18;;;;;;;20.90;8.60;;;;;;;;;;103869;1299;544987;-71
2023/12/28 18:39:55;;;;;;;19.10;9.60;;;;;;;;;;103769;1291;545046;-73
2023/12/28 18:43:33;;;;;;;21.00;9.10;;;;;;;;;;103816;1291;545175;-73
2023/12/28 18:47:09;;;;;;;19.70;9.50;;;;;;;;;;103716;1289;544826;-73
2023/12/28 18:50:44;;;;;;;16.20;7.90;;;;;;;;;;103930;1288;544938;-73
2023/12/28 18:54:24;;;;;;;16.80;8.60;;;;;;;;;;103702;1295;545073;-72
2023/12/28 18:58:06;;;;;;;24.00;11.40;;;;;;;;;;103892;1290;545072;-73
2023/12/28 19:01:40;;;;;;;19.50;10.50;;;;;;;;;;103738;1292;545537;-73
2023/12/28 19:05:15;;;;;;;16.20;8.10;;;;;;;;;;103973;1300;545653;-73
2023/12/28 19:08:51;;;;;;;17.50;8.70;;;;;;;;;;103716;1295;545047;-72
2023/12/28 19:12:33;;;;;;;15.70;8.10;;;;;;;;;;103796;1291;545022;-73
2023/12/28 19:16:20;;;;;;;19.40;9.90;;;;;;;;;;103986;1289;544785;-73
2023/12/28 19:19:48;;;;;;;15.60;8.80;;;;;;;;;;103804;1303;545672;-72
2023/12/28 19:23:25;;;;;;;12.30;6.60;;;;;;;;;;103726;1292;545176;-73
2023/12/28 19:27:02;;;;;;;13.90;7.00;;;;;;;;;;103621;1292;545300;-73
2023/12/28 19:30:40;;;;;;;11.30;7.00;;;;;;;;;;103838;1289;545399;-73
2023/12/28 19:34:18;;;;;;;14.10;9.60;;;;;;;;;;103813;1292;544914;-73
2023/12/28 19:37:55;;;;;;;24.30;15.00;;;;;;;;;;103837;1291;545444;-73
2023/12/28 19:41:32;;;;;;;18.70;10.50;;;;;;;;;;103837;1289;545244;-71
2023/12/28 19:45:10;;;;;;;20.10;11.70;;;;;;;;;;103655;1292;546019;-72
2023/12/28 19:48:47;;;;;;;31.90;16.80;;;;;;;;;;103982;1293;544887;-73
2023/12/28 19:52:26;;;;;;;57.10;29.80;;;;;;;;;;103767;1289;546087;-72
2023/12/28 19:56:03;;;;;;;13.60;8.40;;;;;;;;;;103888;1288;545493;-73
2023/12/28 19:59:39;;;;;;;19.80;12.50;;;;;;;;;;103885;1301;545936;-72
2023/12/28 20:03:18;;;;;;;25.90;14.10;;;;;;;;;;103973;1289;545955;-73
2023/12/28 20:06:56;;;;;;;26.90;15.00;;;;;;;;;;103729;1290;545043;-72
2023/12/28 20:10:30;;;;;;;31.50;17.70;;;;;;;;;;104482;1285;545532;-72
2023/12/28 20:14:10;;;;;;;17.00;10.30;;;;;;;;;;104281;1289;546204;-70
2023/12/28 20:17:48;;;;;;;17.00;9.10;;;;;;;;;;103793;1292;545649;-73
2023/12/28 20:21:33;;;;;;;22.20;10.00;;;;;;;;;;103652;1289;545056;-72
2023/12/28 20:25:03;;;;;;;17.10;8.40;;;;;;;;;;103737;1291;544757;-71
2023/12/28 20:28:40;;;;;;;17.90;9.40;;;;;;;;;;103804;1292;545126;-73
2023/12/28 20:32:18;;;;;;;17.60;9.60;;;;;;;;;;103862;1292;546247;-71
2023/12/28 20:35:55;;;;;;;14.80;8.40;;;;;;;;;;103836;1289;546116;-73
2023/12/28 20:39:33;;;;;;;16.30;8.80;;;;;;;;;;104061;1288;546527;-72
2023/12/28 20:43:11;;;;;;;14.90;9.20;;;;;;;;;;103730;1298;545040;-73
2023/12/28 20:46:47;;;;;;;12.30;7.40;;;;;;;;;;103901;1293;545474;-75
2023/12/28 20:50:24;;;;;;;13.90;7.00;;;;;;;;;;103843;1289;545590;-73